createdAt,value
2023-01-06T00:02:32.204Z,1.15
2023-01-06T00:05:34.048Z,2.05
2023-01-06T00:08:36.369Z,1.80
2023-01-06T00:11:38.040Z,2.92
2023-01-06T00:14:42.502Z,3.30
2023-01-06T00:17:44.903Z,1.10
2023-01-06T00:20:46.631Z,1.88
2023-01-06T00:23:51.337Z,0.93
2023-01-06T00:26:53.036Z,3.53
2023-01-06T00:29:54.828Z,1.35
2023-01-06T00:32:56.487Z,2.63
2023-01-06T00:35:59.389Z,1.17
2023-01-06T00:39:01.173Z,1.57
2023-01-06T00:42:06.521Z,6.80
2023-01-06T00:45:08.588Z,3.70
2023-01-06T00:48:10.307Z,1.25
2023-01-06T00:51:12.060Z,1.73
2023-01-06T00:54:14.513Z,3.27
2023-01-06T00:57:16.205Z,2.83
2023-01-06T01:00:18.672Z,2.33
2023-01-06T01:03:20.487Z,3.45
2023-01-06T01:06:22.374Z,3.63
2023-01-06T01:09:27.353Z,2.97
2023-01-06T01:12:29.119Z,3.42
2023-01-06T01:15:31.465Z,3.05
2023-01-06T01:18:33.506Z,2.17
2023-01-06T01:21:35.312Z,1.77
2023-01-06T01:24:37.845Z,2.47
2023-01-06T01:27:39.657Z,3.10
2023-01-06T01:30:41.327Z,1.27
2023-01-06T01:33:43.426Z,1.42
2023-01-06T01:36:46.876Z,1.17
2023-01-06T01:39:49.196Z,1.20
2023-01-06T01:42:50.913Z,1.77
2023-01-06T01:45:55.505Z,2.53
2023-01-06T01:49:01.081Z,2.83
2023-01-06T01:52:03.171Z,2.40
2023-01-06T01:55:06.851Z,3.10
2023-01-06T01:58:16.132Z,3.42
2023-01-06T02:01:18.395Z,2.25
2023-01-06T02:04:23.035Z,4.80
2023-01-06T02:07:26.819Z,1.88
2023-01-06T02:10:29.167Z,3.87
2023-01-06T02:13:32.883Z,6.03
2023-01-06T02:16:34.446Z,3.90
2023-01-06T02:19:46.076Z,1.52
2023-01-06T02:23:08.966Z,3.05
2023-01-06T02:26:16.609Z,1.93
2023-01-06T02:29:33.245Z,2.45
2023-01-06T02:32:46.699Z,2.90
2023-01-06T02:36:26.895Z,2.60
2023-01-06T02:39:44.014Z,4.45
2023-01-06T02:42:51.522Z,3.00
2023-01-06T02:46:07.687Z,1.30
2023-01-06T02:49:20.930Z,3.92
2023-01-06T02:52:46.860Z,1.40
2023-01-06T02:55:51.465Z,4.22
2023-01-06T02:59:04.286Z,3.30
2023-01-06T03:02:09.533Z,4.72
2023-01-06T03:05:16.167Z,1.65
2023-01-06T03:08:24.052Z,1.98
2023-01-06T03:11:29.067Z,3.65
2023-01-06T03:14:45.447Z,5.80
2023-01-06T03:17:47.193Z,3.58
2023-01-06T03:20:51.194Z,2.22
2023-01-06T03:23:53.464Z,2.38
2023-01-06T03:26:55.264Z,3.13
2023-01-06T03:29:57.145Z,4.27
2023-01-06T03:33:29.057Z,3.00
2023-01-06T03:37:03.479Z,3.10
2023-01-06T03:40:17.373Z,3.75
2023-01-06T03:43:24.691Z,2.20
2023-01-06T03:46:38.831Z,2.27
2023-01-06T03:49:55.457Z,1.42
2023-01-06T03:53:23.592Z,2.80
2023-01-06T03:56:41.796Z,3.15
2023-01-06T03:59:49.120Z,1.73
2023-01-06T04:02:51.008Z,4.80
2023-01-06T04:05:54.415Z,3.45
2023-01-06T04:08:56.083Z,3.63
2023-01-06T04:12:16.132Z,1.63
2023-01-06T04:15:21.596Z,4.13
2023-01-06T04:18:23.373Z,7.37
2023-01-06T04:21:25.064Z,1.77
2023-01-06T04:24:28.428Z,3.55
2023-01-06T04:27:30.123Z,3.83
2023-01-06T04:30:31.823Z,3.40
2023-01-06T04:33:33.508Z,2.77
2023-01-06T04:36:35.160Z,2.00
2023-01-06T04:39:36.865Z,2.38
2023-01-06T04:42:56.750Z,3.53
2023-01-06T04:46:01.881Z,4.85
2023-01-06T04:49:03.652Z,3.27
2023-01-06T04:52:05.699Z,3.38
2023-01-06T04:55:07.869Z,3.38
2023-01-06T04:58:09.696Z,2.78
2023-01-06T05:01:13.027Z,4.00
2023-01-06T05:04:14.857Z,3.37
2023-01-06T05:07:16.777Z,2.40
2023-01-06T05:10:18.645Z,3.20
2023-01-06T05:13:20.339Z,2.28
2023-01-06T05:16:34.002Z,3.53
2023-01-06T05:19:35.650Z,2.27
2023-01-06T05:22:37.291Z,1.90
2023-01-06T05:25:39.025Z,3.35
2023-01-06T05:28:40.715Z,4.88
2023-01-06T05:31:42.386Z,3.03
2023-01-06T05:34:44.091Z,2.27
2023-01-06T05:37:45.734Z,1.77
2023-01-06T05:40:51.373Z,2.42
2023-01-06T05:43:53.016Z,2.47
2023-01-06T05:46:54.751Z,4.13
2023-01-06T05:49:56.940Z,1.60
2023-01-06T05:52:59.963Z,3.88
2023-01-06T05:56:04.040Z,2.58
2023-01-06T05:59:05.979Z,5.70
2023-01-06T06:02:07.701Z,2.80
2023-01-06T06:05:09.524Z,2.27
2023-01-06T06:08:11.206Z,4.97
2023-01-06T06:11:15.543Z,5.05
2023-01-06T06:14:17.555Z,2.47
2023-01-06T06:17:19.271Z,4.13
2023-01-06T06:20:21.120Z,5.43
2023-01-06T06:23:22.768Z,2.83
2023-01-06T06:26:24.579Z,1.40
2023-01-06T06:29:26.756Z,4.60
2023-01-06T06:32:30.667Z,2.72
2023-01-06T06:35:32.387Z,5.17
2023-01-06T06:38:35.296Z,1.98
2023-01-06T06:41:37.030Z,2.55
2023-01-06T06:44:38.711Z,2.90
2023-01-06T06:47:40.430Z,3.47
2023-01-06T06:50:42.184Z,2.83
2023-01-06T06:53:44.407Z,1.92
2023-01-06T06:56:46.197Z,4.25
2023-01-06T06:59:48.144Z,1.30
2023-01-06T07:02:50.484Z,5.35
2023-01-06T07:05:53.761Z,5.97
2023-01-06T07:08:55.571Z,2.85
2023-01-06T07:11:57.324Z,2.30
2023-01-06T07:14:59.004Z,2.65
2023-01-06T07:18:04.732Z,2.85
2023-01-06T07:21:07.187Z,2.63
2023-01-06T07:24:13.952Z,4.88
2023-01-06T07:27:15.713Z,4.15
2023-01-06T07:30:17.429Z,4.97
2023-01-06T07:33:19.649Z,4.38
2023-01-06T07:36:21.357Z,4.03
2023-01-06T07:39:23.035Z,4.40
2023-01-06T07:42:25.305Z,7.85
2023-01-06T07:45:27.112Z,2.92
2023-01-06T07:48:28.801Z,8.05
2023-01-06T07:51:30.846Z,5.00
2023-01-06T07:54:32.604Z,3.58
2023-01-06T07:57:34.265Z,3.53
2023-01-06T08:00:36.794Z,2.10
2023-01-06T08:03:38.570Z,3.47
2023-01-06T08:06:40.840Z,3.60
2023-01-06T08:09:43.107Z,2.63
2023-01-06T08:12:44.845Z,4.40
2023-01-06T08:15:48.602Z,3.20
2023-01-06T08:18:50.437Z,4.53
2023-01-06T08:21:52.179Z,6.77
2023-01-06T08:24:53.860Z,4.10
2023-01-06T08:27:58.862Z,4.32
2023-01-06T08:31:01.262Z,4.40
2023-01-06T08:34:02.912Z,3.28
2023-01-06T08:37:04.725Z,3.20
2023-01-06T08:40:06.981Z,1.20
2023-01-06T08:43:08.709Z,1.75
2023-01-06T08:46:13.471Z,3.10
2023-01-06T08:49:15.632Z,4.03
2023-01-06T08:52:17.829Z,1.77
2023-01-06T08:55:19.533Z,1.58
2023-01-06T08:58:21.301Z,2.22
2023-01-06T09:01:29.011Z,1.85
2023-01-06T09:04:30.832Z,2.15
2023-01-06T09:07:32.495Z,3.17
2023-01-06T09:10:38.082Z,1.85
2023-01-06T09:13:40.270Z,4.20
2023-01-06T09:16:42.001Z,2.97
2023-01-06T09:19:43.908Z,2.15
2023-01-06T09:22:45.972Z,1.90
2023-01-06T09:25:47.721Z,1.50
2023-01-06T09:28:49.424Z,1.40
2023-01-06T09:31:51.139Z,3.35
2023-01-06T09:34:52.790Z,4.93
2023-01-06T09:37:54.475Z,1.37
2023-01-06T09:41:04.447Z,1.95
2023-01-06T09:44:10.987Z,1.92
2023-01-06T09:47:18.438Z,2.42
2023-01-06T09:50:37.367Z,1.88
2023-01-06T09:53:46.872Z,3.07
2023-01-06T09:56:56.775Z,1.77
2023-01-06T10:00:01.835Z,2.60
2023-01-06T10:03:04.924Z,3.22
2023-01-06T10:06:25.318Z,2.13
2023-01-06T10:09:54.104Z,1.40
2023-01-06T10:13:20.409Z,1.80
2023-01-06T10:16:40.337Z,3.00
2023-01-06T10:19:59.771Z,3.67
2023-01-06T10:23:20.442Z,4.30
2023-01-06T10:26:32.445Z,2.10
2023-01-06T10:29:37.474Z,1.17
2023-01-06T10:32:40.197Z,2.20
2023-01-06T10:35:43.328Z,1.77
2023-01-06T10:38:52.088Z,1.58
2023-01-06T10:42:24.127Z,1.57
2023-01-06T10:45:37.889Z,1.65
2023-01-06T10:48:44.218Z,1.70
2023-01-06T10:51:57.494Z,3.22
2023-01-06T10:55:05.296Z,4.15
2023-01-06T10:58:12.232Z,3.93
2023-01-06T11:01:25.338Z,6.15
2023-01-06T11:04:28.144Z,5.30
2023-01-06T11:07:30.511Z,4.05
2023-01-06T11:10:38.778Z,4.45
2023-01-06T11:13:45.962Z,2.47
2023-01-06T11:17:15.694Z,2.10
2023-01-06T11:20:17.362Z,2.08
2023-01-06T11:23:23.226Z,1.83
2023-01-06T11:26:24.891Z,2.42
2023-01-06T11:29:30.051Z,1.57
2023-01-06T11:32:31.804Z,1.60
2023-01-06T11:35:33.778Z,1.20
2023-01-06T11:38:42.943Z,1.42
2023-01-06T11:41:47.946Z,2.00
2023-01-06T11:44:49.652Z,1.40
2023-01-06T11:47:51.413Z,2.70
2023-01-06T11:50:55.939Z,2.33
2023-01-06T11:53:57.761Z,1.73
2023-01-06T11:57:11.709Z,1.65
2023-01-06T12:00:51.863Z,1.90
2023-01-06T12:04:13.912Z,3.50
2023-01-06T12:07:18.978Z,3.25
2023-01-06T12:10:34.485Z,3.38
2023-01-06T12:13:44.460Z,1.95
2023-01-06T12:17:14.518Z,2.03
2023-01-06T12:20:28.284Z,3.17
2023-01-06T12:23:34.564Z,2.95
2023-01-06T12:26:36.778Z,2.55
2023-01-06T12:29:39.261Z,2.35
2023-01-06T12:32:45.195Z,1.90
2023-01-06T12:35:50.872Z,3.33
2023-01-06T12:38:59.861Z,2.50
2023-01-06T12:42:22.414Z,3.30
2023-01-06T12:45:37.712Z,2.22
2023-01-06T12:49:05.611Z,2.33
2023-01-06T12:52:17.834Z,2.00
2023-01-06T12:55:28.936Z,1.85
2023-01-06T12:58:55.303Z,2.28
2023-01-06T13:02:18.729Z,2.28
2023-01-06T13:05:32.751Z,1.80
2023-01-06T13:09:05.489Z,2.88
2023-01-06T13:12:17.501Z,1.98
2023-01-06T13:15:27.505Z,2.25
2023-01-06T13:18:38.191Z,2.25
2023-01-06T13:21:42.225Z,2.00
2023-01-06T13:25:01.193Z,4.15
2023-01-06T13:28:22.525Z,1.95
2023-01-06T13:31:49.104Z,1.70
2023-01-06T13:35:02.677Z,1.38
2023-01-06T13:38:27.308Z,3.50
2023-01-06T13:41:37.029Z,1.40
2023-01-06T13:44:39.081Z,1.58
2023-01-06T13:47:41.963Z,3.08
2023-01-06T13:50:44.042Z,2.75
2023-01-06T13:53:46.810Z,1.87
2023-01-06T13:57:20.208Z,3.33
2023-01-06T14:00:25.126Z,6.13
2023-01-06T14:03:27.083Z,3.00
2023-01-06T14:06:28.697Z,1.95
2023-01-06T14:09:33.317Z,4.73
2023-01-06T14:12:37.239Z,9.63
2023-01-06T14:15:55.285Z,21.75
2023-01-06T14:19:13.098Z,7.88
2023-01-06T14:22:18.093Z,7.78
2023-01-06T14:25:24.076Z,4.07
2023-01-06T14:28:30.215Z,9.15
2023-01-06T14:31:32.235Z,19.63
2023-01-06T14:34:36.379Z,29.05
2023-01-06T14:37:43.194Z,17.80
2023-01-06T14:41:06.590Z,18.20
2023-01-06T14:44:15.957Z,9.43
2023-01-06T14:47:46.077Z,8.55
2023-01-06T14:50:56.389Z,9.15
2023-01-06T14:54:26.562Z,7.03
2023-01-06T14:57:37.049Z,7.93
2023-01-06T15:00:45.950Z,20.58
2023-01-06T15:03:58.306Z,22.60
2023-01-06T15:07:20.846Z,18.23
2023-01-06T15:10:22.893Z,15.05
2023-01-06T15:13:30.039Z,11.33
2023-01-06T15:16:41.267Z,11.05
2023-01-06T15:19:44.647Z,13.27
2023-01-06T15:22:51.692Z,14.60
2023-01-06T15:25:55.644Z,12.10
2023-01-06T15:29:06.141Z,15.57
2023-01-06T15:32:13.176Z,16.35
2023-01-06T15:35:20.442Z,19.73
2023-01-06T15:38:22.153Z,37.05
2023-01-06T15:41:33.505Z,39.13
2023-01-06T15:44:37.841Z,45.07
2023-01-06T15:47:46.786Z,41.45
2023-01-06T15:50:51.428Z,42.40
2023-01-06T15:53:59.532Z,41.65
2023-01-06T15:57:15.746Z,42.53
2023-01-06T16:00:22.072Z,35.23
2023-01-06T16:03:26.893Z,33.88
2023-01-06T16:06:33.926Z,27.35
2023-01-06T16:09:36.677Z,25.13
2023-01-06T16:12:38.442Z,28.88
2023-01-06T16:15:48.038Z,17.07
2023-01-06T16:18:51.892Z,40.80
2023-01-06T16:21:55.650Z,24.60
2023-01-06T16:24:59.916Z,64.55
2023-01-06T16:28:04.464Z,148.80
2023-01-06T16:31:12.261Z,159.67
2023-01-06T16:34:30.670Z,177.20
2023-01-06T16:37:35.366Z,129.93
2023-01-06T16:40:36.991Z,70.78
2023-01-06T16:43:38.677Z,41.90
2023-01-06T16:46:40.425Z,18.60
2023-01-06T16:49:42.137Z,32.85
2023-01-06T16:52:45.335Z,33.38
2023-01-06T16:55:55.184Z,26.48
2023-01-06T16:58:56.939Z,25.58
2023-01-06T17:02:07.750Z,34.00
2023-01-06T17:05:28.907Z,11.10
2023-01-06T17:08:38.101Z,7.72
2023-01-06T17:11:39.811Z,5.25
2023-01-06T17:14:41.493Z,7.30
2023-01-06T17:17:43.154Z,6.77
2023-01-06T17:20:44.831Z,5.30
2023-01-06T17:23:53.449Z,4.70
2023-01-06T17:27:20.251Z,5.78
2023-01-06T17:30:22.000Z,15.27
2023-01-06T17:33:23.633Z,13.00
2023-01-06T17:36:37.194Z,11.77
2023-01-06T17:39:41.047Z,14.05
2023-01-06T17:42:43.536Z,14.98
2023-01-06T17:45:45.290Z,17.67
2023-01-06T17:48:50.065Z,20.33
2023-01-06T17:51:52.059Z,25.25
2023-01-06T17:55:15.876Z,22.02
2023-01-06T17:58:21.900Z,29.13
2023-01-06T18:01:26.786Z,23.75
2023-01-06T18:04:28.515Z,65.33
2023-01-06T18:07:32.291Z,50.40
2023-01-06T18:10:36.421Z,17.15
2023-01-06T18:13:40.103Z,22.55
2023-01-06T18:16:45.731Z,20.27
2023-01-06T18:19:47.409Z,20.83
2023-01-06T18:22:49.223Z,17.92
2023-01-06T18:25:55.522Z,12.07
2023-01-06T18:29:02.151Z,12.40
2023-01-06T18:32:31.423Z,19.92
2023-01-06T18:35:33.284Z,16.23
2023-01-06T18:38:35.111Z,24.13
2023-01-06T18:41:36.957Z,15.00
2023-01-06T18:44:38.690Z,10.93
2023-01-06T18:47:42.327Z,7.75
2023-01-06T18:50:49.429Z,6.13
2023-01-06T18:53:52.428Z,6.25
2023-01-06T18:56:54.163Z,8.63
2023-01-06T19:00:07.132Z,6.82
2023-01-06T19:03:32.729Z,7.85
2023-01-06T19:06:40.139Z,6.83
2023-01-06T19:09:49.760Z,8.00
2023-01-06T19:12:51.464Z,6.63
2023-01-06T19:15:54.697Z,10.13
2023-01-06T19:19:08.632Z,7.47
2023-01-06T19:22:22.378Z,9.30
2023-01-06T19:25:40.688Z,8.95
2023-01-06T19:28:42.500Z,13.35
2023-01-06T19:31:54.576Z,9.57
2023-01-06T19:34:56.519Z,11.38
2023-01-06T19:38:01.188Z,14.77
2023-01-06T19:41:07.867Z,14.57
2023-01-06T19:44:13.047Z,14.07
2023-01-06T19:47:17.846Z,13.00
2023-01-06T19:50:22.950Z,14.98
2023-01-06T19:53:34.866Z,14.87
2023-01-06T19:56:39.899Z,15.48
2023-01-06T19:59:41.894Z,14.05
2023-01-06T20:02:46.468Z,12.70
2023-01-06T20:05:48.220Z,15.35
2023-01-06T20:08:53.767Z,14.63
2023-01-06T20:11:56.151Z,13.40
2023-01-06T20:14:57.798Z,17.33
2023-01-06T20:17:59.524Z,14.68
2023-01-06T20:21:01.443Z,13.80
2023-01-06T20:24:04.713Z,16.00
2023-01-06T20:27:06.627Z,20.60
2023-01-06T20:30:09.185Z,15.98
2023-01-06T20:33:11.340Z,16.48
2023-01-06T20:36:17.193Z,16.95
2023-01-06T20:39:19.033Z,18.47
2023-01-06T20:42:21.397Z,16.77
2023-01-06T20:45:23.297Z,19.92
2023-01-06T20:48:25.400Z,23.00
2023-01-06T20:51:27.251Z,24.08
2023-01-06T20:54:29.025Z,22.27
2023-01-06T20:57:30.750Z,17.20
2023-01-06T21:00:32.517Z,20.85
2023-01-06T21:03:34.218Z,20.70
2023-01-06T21:06:38.314Z,18.52
2023-01-06T21:09:40.031Z,19.37
2023-01-06T21:12:45.342Z,15.85
2023-01-06T21:15:47.022Z,19.52
2023-01-06T21:18:49.552Z,22.17
2023-01-06T21:21:51.857Z,20.15
2023-01-06T21:24:53.560Z,17.57
2023-01-06T21:27:55.316Z,18.95
2023-01-06T21:30:57.148Z,20.05
2023-01-06T21:33:58.826Z,18.73
2023-01-06T21:37:00.590Z,18.90
2023-01-06T21:40:06.601Z,19.80
2023-01-06T21:43:08.464Z,18.83
2023-01-06T21:46:10.214Z,17.92
2023-01-06T21:49:12.449Z,20.35
2023-01-06T21:52:15.746Z,19.08
2023-01-06T21:55:17.588Z,20.40
2023-01-06T21:58:19.387Z,21.25
2023-01-06T22:01:21.762Z,18.70
2023-01-06T22:04:23.628Z,17.88
2023-01-06T22:07:25.389Z,19.88
2023-01-06T22:10:27.297Z,22.87
2023-01-06T22:13:29.344Z,19.73
2023-01-06T22:16:31.703Z,30.17
2023-01-06T22:19:33.758Z,26.08
2023-01-06T22:22:35.591Z,29.27
2023-01-06T22:25:37.409Z,24.80
2023-01-06T22:28:39.091Z,20.55
2023-01-06T22:31:40.822Z,21.35
2023-01-06T22:34:42.508Z,21.08
2023-01-06T22:37:44.514Z,22.85
2023-01-06T22:40:46.759Z,20.23
2023-01-06T22:43:48.537Z,25.17
2023-01-06T22:46:50.238Z,23.58
2023-01-06T22:49:51.910Z,21.35
2023-01-06T22:52:55.890Z,27.48
2023-01-06T22:56:03.519Z,25.43
2023-01-06T22:59:05.465Z,22.92
2023-01-06T23:02:07.616Z,21.10
2023-01-06T23:05:10.573Z,22.65
2023-01-06T23:08:12.307Z,28.23
2023-01-06T23:11:19.344Z,26.60
2023-01-06T23:14:21.319Z,22.45
2023-01-06T23:17:23.076Z,21.48
2023-01-06T23:20:24.812Z,25.60
2023-01-06T23:23:27.311Z,22.48
2023-01-06T23:26:33.871Z,21.50
2023-01-06T23:29:35.577Z,24.88
2023-01-06T23:32:37.292Z,24.00
2023-01-06T23:35:38.908Z,25.73
2023-01-06T23:38:40.709Z,24.00
2023-01-06T23:41:43.155Z,26.60
2023-01-06T23:44:44.806Z,22.15
2023-01-06T23:47:46.484Z,25.20
2023-01-06T23:50:51.305Z,23.88
2023-01-06T23:53:53.451Z,28.55
2023-01-06T23:56:55.161Z,27.00
2023-01-06T23:59:56.814Z,26.90
